createdAt,value
2022-11-16T00:01:27.568Z,91.59
2022-11-16T00:03:58.324Z,92.15
2022-11-16T00:06:27.170Z,92.47
2022-11-16T00:09:20.680Z,92.08
2022-11-16T00:12:10.687Z,92.57
2022-11-16T00:14:39.219Z,93.91
2022-11-16T00:17:07.033Z,94.62
2022-11-16T00:19:34.695Z,94.42
2022-11-16T00:22:02.467Z,93.34
2022-11-16T00:24:29.905Z,92.60
2022-11-16T00:26:57.771Z,91.93
2022-11-16T00:29:27.061Z,92.62
2022-11-16T00:32:02.991Z,92.91
2022-11-16T00:34:34.873Z,92.28
2022-11-16T00:37:09.732Z,91.85
2022-11-16T00:39:48.275Z,91.76
2022-11-16T00:42:20.071Z,92.13
2022-11-16T00:45:23.911Z,92.85
2022-11-16T00:48:03.655Z,92.23
2022-11-16T00:50:38.076Z,92.35
2022-11-16T00:53:19.299Z,93.43
2022-11-16T00:55:49.091Z,93.02
2022-11-16T00:58:19.245Z,92.70
2022-11-16T01:00:51.673Z,92.54
2022-11-16T01:03:19.594Z,92.52
2022-11-16T01:05:47.405Z,92.92
2022-11-16T01:08:15.649Z,92.79
2022-11-16T01:10:43.157Z,92.00
2022-11-16T01:13:12.169Z,91.67
2022-11-16T01:15:39.685Z,91.19
2022-11-16T01:18:07.505Z,91.71
2022-11-16T01:20:35.035Z,91.87
2022-11-16T01:23:02.886Z,92.09
2022-11-16T01:25:30.352Z,92.77
2022-11-16T01:27:58.215Z,93.87
2022-11-16T01:30:36.672Z,94.15
2022-11-16T01:33:08.402Z,94.98
2022-11-16T01:35:36.169Z,94.81
2022-11-16T01:38:05.117Z,94.85
2022-11-16T01:40:34.246Z,94.75
2022-11-16T01:43:02.036Z,95.05
2022-11-16T01:45:41.232Z,94.81
2022-11-16T01:48:19.739Z,94.52
2022-11-16T01:50:48.654Z,93.91
2022-11-16T01:53:16.994Z,94.05
2022-11-16T01:55:50.641Z,94.68
2022-11-16T01:58:45.178Z,94.34
2022-11-16T02:01:23.997Z,93.73
2022-11-16T02:03:56.317Z,94.78
2022-11-16T02:06:32.874Z,95.18
2022-11-16T02:09:54.132Z,95.31
2022-11-16T02:13:00.427Z,94.97
2022-11-16T02:16:35.085Z,95.52
2022-11-16T02:19:18.980Z,96.66
2022-11-16T02:22:25.813Z,96.49
2022-11-16T02:25:14.029Z,97.15
2022-11-16T02:28:05.231Z,97.16
2022-11-16T02:30:33.190Z,96.88
2022-11-16T02:33:12.990Z,96.34
2022-11-16T02:35:49.945Z,95.09
2022-11-16T02:38:23.887Z,94.97
2022-11-16T02:41:05.153Z,95.57
2022-11-16T02:43:50.733Z,95.58
2022-11-16T02:46:31.011Z,95.00
2022-11-16T02:49:03.239Z,94.66
2022-11-16T02:51:33.437Z,94.63
2022-11-16T02:54:17.925Z,94.86
2022-11-16T02:57:27.877Z,94.38
2022-11-16T02:59:59.478Z,94.06
2022-11-16T03:03:14.635Z,94.32
2022-11-16T03:06:02.800Z,94.86
2022-11-16T03:08:38.397Z,95.16
2022-11-16T03:11:30.511Z,94.55
2022-11-16T03:14:09.510Z,93.97
2022-11-16T03:16:47.899Z,93.67
2022-11-16T03:19:22.511Z,93.33
2022-11-16T03:21:59.532Z,93.56
2022-11-16T03:24:27.293Z,93.82
2022-11-16T03:27:37.200Z,94.01
2022-11-16T03:30:10.599Z,93.80
2022-11-16T03:32:56.084Z,94.07
2022-11-16T03:35:42.996Z,94.33
2022-11-16T03:38:13.320Z,93.94
2022-11-16T03:40:47.624Z,93.99
2022-11-16T03:43:17.540Z,94.71
2022-11-16T03:45:45.946Z,94.09
2022-11-16T03:48:14.005Z,93.55
2022-11-16T03:50:42.900Z,93.38
2022-11-16T03:53:10.979Z,93.23
2022-11-16T03:55:39.441Z,92.72
2022-11-16T03:58:07.414Z,93.35
2022-11-16T04:00:35.006Z,92.80
2022-11-16T04:03:08.985Z,93.62
2022-11-16T04:05:55.083Z,93.42
2022-11-16T04:08:41.941Z,93.26
2022-11-16T04:11:40.636Z,93.77
2022-11-16T04:14:37.489Z,94.48
2022-11-16T04:17:34.813Z,94.30
2022-11-16T04:20:22.392Z,94.57
2022-11-16T04:23:26.956Z,94.87
2022-11-16T04:25:55.083Z,94.79
2022-11-16T04:28:29.321Z,95.05
2022-11-16T04:31:33.941Z,94.83
2022-11-16T04:34:25.086Z,95.10
2022-11-16T04:37:14.681Z,95.02
2022-11-16T04:39:42.332Z,95.52
2022-11-16T04:42:22.316Z,96.11
2022-11-16T04:45:30.729Z,96.17
2022-11-16T04:47:58.873Z,95.89
2022-11-16T04:50:31.177Z,96.48
2022-11-16T04:53:01.929Z,96.47
2022-11-16T04:55:31.077Z,96.16
2022-11-16T04:58:00.361Z,96.51
2022-11-16T05:00:28.634Z,96.57
2022-11-16T05:03:01.073Z,96.09
2022-11-16T05:05:30.108Z,95.82
2022-11-16T05:07:59.758Z,95.54
2022-11-16T05:10:29.793Z,95.67
2022-11-16T05:12:58.154Z,95.87
2022-11-16T05:15:27.453Z,95.68
2022-11-16T05:17:56.762Z,95.52
2022-11-16T05:20:44.612Z,95.57
2022-11-16T05:23:32.958Z,95.17
2022-11-16T05:26:06.469Z,95.35
2022-11-16T05:28:34.775Z,95.73
2022-11-16T05:31:03.357Z,95.67
2022-11-16T05:33:32.989Z,95.57
2022-11-16T05:36:00.546Z,95.33
2022-11-16T05:38:28.573Z,95.44
2022-11-16T05:40:59.114Z,95.20
2022-11-16T05:43:27.126Z,94.87
2022-11-16T05:46:02.116Z,95.11
2022-11-16T05:48:30.201Z,95.33
2022-11-16T05:51:00.759Z,95.58
2022-11-16T05:53:32.956Z,95.64
2022-11-16T05:56:00.868Z,95.31
2022-11-16T05:58:29.374Z,95.44
2022-11-16T06:00:59.731Z,95.10
2022-11-16T06:03:31.476Z,95.17
2022-11-16T06:06:00.315Z,95.04
2022-11-16T06:08:30.825Z,93.54
2022-11-16T06:11:07.119Z,93.58
2022-11-16T06:13:37.665Z,93.73
2022-11-16T06:16:06.673Z,93.82
2022-11-16T06:18:41.914Z,93.96
2022-11-16T06:21:10.860Z,94.12
2022-11-16T06:23:38.839Z,94.25
2022-11-16T06:26:07.877Z,94.20
2022-11-16T06:28:37.348Z,93.69
2022-11-16T06:31:06.289Z,93.03
2022-11-16T06:33:38.322Z,92.38
2022-11-16T06:36:10.814Z,92.45
2022-11-16T06:38:38.768Z,92.45
2022-11-16T06:41:07.201Z,92.65
2022-11-16T06:43:41.012Z,92.41
2022-11-16T06:46:08.719Z,92.47
2022-11-16T06:48:36.884Z,92.74
2022-11-16T06:51:09.514Z,92.77
2022-11-16T06:53:37.512Z,92.64
2022-11-16T06:56:07.492Z,91.67
2022-11-16T06:58:43.414Z,92.03
2022-11-16T07:01:13.740Z,92.57
2022-11-16T07:03:44.149Z,92.35
2022-11-16T07:06:14.006Z,92.36
2022-11-16T07:08:45.068Z,92.64
2022-11-16T07:11:15.420Z,92.61
2022-11-16T07:13:44.176Z,92.34
2022-11-16T07:16:12.669Z,91.97
2022-11-16T07:18:46.284Z,90.97
2022-11-16T07:21:17.001Z,90.66
2022-11-16T07:23:46.211Z,91.18
2022-11-16T07:26:19.116Z,90.69
2022-11-16T07:28:53.548Z,90.68
2022-11-16T07:31:23.029Z,91.07
2022-11-16T07:34:10.735Z,90.49
2022-11-16T07:36:46.977Z,89.08
2022-11-16T07:39:15.154Z,88.62
2022-11-16T07:41:45.264Z,88.87
2022-11-16T07:44:26.167Z,89.06
2022-11-16T07:47:07.203Z,89.11
2022-11-16T07:49:37.179Z,89.32
2022-11-16T07:52:12.249Z,89.72
2022-11-16T07:54:59.321Z,90.22
2022-11-16T07:57:28.763Z,90.19
2022-11-16T08:00:00.668Z,89.90
2022-11-16T08:02:30.068Z,90.48
2022-11-16T08:04:57.856Z,89.91
2022-11-16T08:07:28.207Z,89.42
2022-11-16T08:09:57.632Z,89.32
2022-11-16T08:12:25.181Z,89.11
2022-11-16T08:14:54.070Z,89.69
2022-11-16T08:17:21.686Z,90.09
2022-11-16T08:19:50.489Z,89.89
2022-11-16T08:22:19.443Z,90.42
2022-11-16T08:24:47.967Z,89.99
2022-11-16T08:27:17.100Z,89.98
2022-11-16T08:29:48.070Z,89.97
2022-11-16T08:32:16.470Z,90.64
2022-11-16T08:34:44.983Z,91.51
2022-11-16T08:37:13.054Z,91.25
2022-11-16T08:39:44.632Z,91.01
2022-11-16T08:42:12.434Z,90.30
2022-11-16T08:44:44.642Z,89.85
2022-11-16T08:47:15.371Z,90.16
2022-11-16T08:49:50.221Z,89.48
2022-11-16T08:52:19.916Z,89.66
2022-11-16T08:54:48.451Z,89.84
2022-11-16T08:57:17.179Z,89.59
2022-11-16T08:59:49.449Z,89.24
2022-11-16T09:02:18.571Z,88.91
2022-11-16T09:04:46.892Z,87.77
2022-11-16T09:07:14.339Z,87.43
2022-11-16T09:09:42.142Z,87.32
2022-11-16T09:12:09.622Z,87.17
2022-11-16T09:14:37.430Z,87.83
2022-11-16T09:17:05.231Z,87.17
2022-11-16T09:19:33.137Z,87.76
2022-11-16T09:22:00.567Z,87.14
2022-11-16T09:24:28.395Z,87.84
2022-11-16T09:26:57.573Z,87.69
2022-11-16T09:29:27.612Z,87.92
2022-11-16T09:31:56.011Z,87.19
2022-11-16T09:34:24.281Z,86.19
2022-11-16T09:36:52.526Z,85.84
2022-11-16T09:39:31.008Z,85.57
2022-11-16T09:42:41.443Z,84.97
2022-11-16T09:45:46.893Z,84.64
2022-11-16T09:48:17.024Z,84.58
2022-11-16T09:50:55.218Z,84.07
2022-11-16T09:53:59.029Z,83.65
2022-11-16T09:56:31.783Z,82.81
2022-11-16T09:59:11.074Z,83.25
2022-11-16T10:02:02.056Z,82.88
2022-11-16T10:04:58.122Z,82.36
2022-11-16T10:07:46.735Z,82.34
2022-11-16T10:10:46.482Z,80.08
2022-11-16T10:13:49.697Z,82.66
2022-11-16T10:16:45.071Z,81.36
2022-11-16T10:19:18.677Z,80.72
2022-11-16T10:21:54.857Z,79.66
2022-11-16T10:24:53.772Z,77.31
2022-11-16T10:27:45.075Z,74.02
2022-11-16T10:30:17.557Z,70.18
2022-11-16T10:33:02.821Z,70.17
2022-11-16T10:35:41.471Z,68.05
2022-11-16T10:38:20.352Z,63.93
2022-11-16T10:41:19.413Z,64.36
2022-11-16T10:43:48.463Z,63.88
2022-11-16T10:46:31.857Z,62.71
2022-11-16T10:49:07.302Z,58.86
2022-11-16T10:51:35.135Z,59.62
2022-11-16T10:54:04.616Z,57.69
2022-11-16T10:56:40.540Z,57.46
2022-11-16T10:59:18.369Z,57.48
2022-11-16T11:01:51.060Z,55.49
2022-11-16T11:04:31.411Z,56.20
2022-11-16T11:07:24.634Z,56.30
2022-11-16T11:09:54.098Z,54.01
2022-11-16T11:12:39.599Z,53.93
2022-11-16T11:15:26.094Z,53.16
2022-11-16T11:18:15.526Z,53.87
2022-11-16T11:20:55.074Z,54.69
2022-11-16T11:23:27.433Z,55.37
2022-11-16T11:26:00.497Z,55.95
2022-11-16T11:28:38.412Z,56.21
2022-11-16T11:31:38.233Z,55.10
2022-11-16T11:34:32.790Z,54.89
2022-11-16T11:37:11.337Z,55.69
2022-11-16T11:39:39.147Z,55.55
2022-11-16T11:42:15.685Z,54.96
2022-11-16T11:44:58.859Z,54.92
2022-11-16T11:48:18.123Z,55.05
2022-11-16T11:51:17.439Z,55.13
2022-11-16T11:53:59.931Z,55.33
2022-11-16T11:56:31.914Z,55.19
2022-11-16T11:59:00.592Z,53.91
2022-11-16T12:02:16.444Z,53.30
2022-11-16T12:05:21.583Z,52.97
2022-11-16T12:08:17.280Z,53.40
2022-11-16T12:10:52.852Z,53.50
2022-11-16T12:13:37.815Z,53.62
2022-11-16T12:16:37.268Z,53.79
2022-11-16T12:19:27.219Z,54.08
2022-11-16T12:22:26.627Z,54.20
2022-11-16T12:25:30.289Z,53.38
2022-11-16T12:28:49.867Z,53.64
2022-11-16T12:31:41.983Z,53.53
2022-11-16T12:34:31.510Z,53.72
2022-11-16T12:37:29.716Z,53.99
2022-11-16T12:40:58.322Z,54.16
2022-11-16T12:43:40.505Z,53.89
2022-11-16T12:46:35.615Z,54.23
2022-11-16T12:49:12.179Z,54.75
2022-11-16T12:52:19.507Z,54.11
2022-11-16T12:55:24.769Z,53.79
2022-11-16T12:58:14.441Z,53.83
2022-11-16T13:01:13.828Z,53.77
2022-11-16T13:03:49.592Z,53.83
2022-11-16T13:06:31.374Z,53.07
2022-11-16T13:09:03.487Z,53.12
2022-11-16T13:11:54.712Z,52.90
2022-11-16T13:14:51.121Z,52.35
2022-11-16T13:17:31.121Z,52.44
2022-11-16T13:20:45.040Z,52.72
2022-11-16T13:23:31.408Z,53.01
2022-11-16T13:26:35.992Z,53.76
2022-11-16T13:29:15.590Z,53.32
2022-11-16T13:31:50.184Z,53.46
2022-11-16T13:34:27.241Z,53.95
2022-11-16T13:36:55.017Z,54.18
2022-11-16T13:39:58.274Z,54.38
2022-11-16T13:42:26.873Z,54.21
2022-11-16T13:45:05.555Z,54.06
2022-11-16T13:47:33.461Z,54.04
2022-11-16T13:50:05.835Z,54.00
2022-11-16T13:55:48.240Z,54.37
2022-11-16T13:58:22.263Z,54.90
2022-11-16T14:01:08.406Z,54.88
2022-11-16T14:03:41.555Z,55.23
2022-11-16T14:06:44.696Z,55.36
2022-11-16T14:09:45.296Z,55.81
2022-11-16T14:12:37.828Z,56.51
2022-11-16T14:15:24.264Z,56.79
2022-11-16T14:18:18.665Z,57.59
2022-11-16T14:21:05.103Z,58.46
2022-11-16T14:23:48.412Z,59.18
2022-11-16T14:27:09.880Z,59.90
2022-11-16T14:30:35.704Z,59.70
2022-11-16T14:33:03.213Z,60.25
2022-11-16T14:35:39.864Z,60.27
2022-11-16T14:38:28.155Z,60.98
2022-11-16T14:41:02.097Z,61.25
2022-11-16T14:43:41.539Z,61.80
2022-11-16T14:46:26.749Z,61.92
2022-11-16T14:48:58.668Z,62.76
2022-11-16T14:51:31.189Z,63.27
2022-11-16T14:54:11.462Z,63.30
2022-11-16T14:57:00.534Z,63.93
2022-11-16T14:59:29.839Z,64.71
2022-11-16T15:02:01.197Z,65.62
2022-11-16T15:04:30.012Z,66.18
2022-11-16T15:07:05.831Z,66.75
2022-11-16T15:09:44.617Z,67.28
2022-11-16T15:12:37.446Z,67.82
2022-11-16T15:15:13.334Z,68.39
2022-11-16T15:17:58.852Z,68.62
2022-11-16T15:20:33.913Z,69.28
2022-11-16T15:23:04.821Z,69.45
2022-11-16T15:26:03.601Z,69.41
2022-11-16T15:28:33.902Z,69.76
2022-11-16T15:31:06.503Z,69.69
2022-11-16T15:33:40.737Z,69.72
2022-11-16T15:36:54.061Z,69.77
2022-11-16T15:39:27.634Z,69.66
2022-11-16T15:42:00.389Z,69.27
2022-11-16T15:44:32.193Z,69.18
2022-11-16T15:47:00.736Z,68.94
2022-11-16T15:49:39.121Z,68.19
2022-11-16T15:52:09.224Z,68.14
2022-11-16T15:54:56.269Z,67.90
2022-11-16T15:57:24.989Z,67.37
2022-11-16T15:59:56.878Z,67.79
2022-11-16T16:02:30.736Z,67.83
2022-11-16T16:04:58.565Z,68.39
2022-11-16T16:07:55.964Z,68.97
2022-11-16T16:10:26.673Z,69.42
2022-11-16T16:12:57.833Z,70.19
2022-11-16T16:15:40.132Z,70.79
2022-11-16T16:18:38.984Z,71.40
2022-11-16T16:21:08.350Z,72.07
2022-11-16T16:23:49.574Z,72.34
2022-11-16T16:26:18.036Z,72.61
2022-11-16T16:28:48.129Z,72.92
2022-11-16T16:31:19.126Z,73.51
2022-11-16T16:33:46.772Z,74.03
2022-11-16T16:36:15.510Z,74.27
2022-11-16T16:38:44.008Z,74.45
2022-11-16T16:41:24.250Z,74.52
2022-11-16T16:43:52.595Z,75.27
2022-11-16T16:46:20.539Z,75.99
2022-11-16T16:48:48.075Z,76.49
2022-11-16T16:51:16.033Z,76.40
2022-11-16T16:53:44.206Z,76.53
2022-11-16T16:56:16.808Z,76.83
2022-11-16T16:58:44.374Z,77.52
2022-11-16T17:01:12.465Z,78.25
2022-11-16T17:03:40.227Z,78.54
2022-11-16T17:06:08.071Z,78.52
2022-11-16T17:08:37.623Z,79.24
2022-11-16T17:11:05.765Z,79.46
2022-11-16T17:13:33.526Z,79.34
2022-11-16T17:16:06.636Z,79.41
2022-11-16T17:18:34.911Z,79.60
2022-11-16T17:21:08.493Z,79.89
2022-11-16T17:23:37.419Z,80.18
2022-11-16T17:26:09.169Z,80.21
2022-11-16T17:28:36.780Z,80.53
2022-11-16T17:31:08.903Z,80.40
2022-11-16T17:33:38.244Z,80.92
2022-11-16T17:36:08.495Z,80.66
2022-11-16T17:38:36.467Z,81.05
2022-11-16T17:41:19.384Z,80.72
2022-11-16T17:43:47.499Z,80.25
2022-11-16T17:46:18.541Z,80.51
2022-11-16T17:48:47.634Z,80.34
2022-11-16T17:51:18.732Z,80.25
2022-11-16T17:53:46.551Z,80.17
2022-11-16T17:56:20.799Z,80.18
2022-11-16T17:58:50.330Z,80.04
2022-11-16T18:01:19.408Z,79.87
2022-11-16T18:03:47.633Z,79.61
2022-11-16T18:06:20.109Z,79.67
2022-11-16T18:08:48.673Z,79.31
2022-11-16T18:11:25.461Z,79.26
2022-11-16T18:14:00.808Z,79.37
2022-11-16T18:16:31.751Z,79.43
2022-11-16T18:19:08.616Z,79.67
2022-11-16T18:21:41.279Z,79.89
2022-11-16T18:24:10.079Z,80.02
2022-11-16T18:26:39.135Z,80.14
2022-11-16T18:29:09.150Z,80.47
2022-11-16T18:31:36.974Z,80.67
2022-11-16T18:34:04.438Z,80.82
2022-11-16T18:36:32.270Z,81.25
2022-11-16T18:38:59.942Z,81.42
2022-11-16T18:41:29.774Z,81.65
2022-11-16T18:44:01.844Z,82.07
2022-11-16T18:46:32.914Z,82.17
2022-11-16T18:49:00.580Z,81.82
2022-11-16T18:51:29.652Z,81.94
2022-11-16T18:53:57.420Z,82.13
2022-11-16T18:56:25.868Z,81.99
2022-11-16T18:58:53.832Z,81.88
2022-11-16T19:01:25.324Z,82.11
2022-11-16T19:03:54.467Z,82.14
2022-11-16T19:06:23.386Z,82.15
2022-11-16T19:08:59.193Z,82.53
2022-11-16T19:11:28.812Z,82.37
2022-11-16T19:14:07.553Z,82.46
2022-11-16T19:16:36.279Z,82.58
2022-11-16T19:19:04.403Z,82.42
2022-11-16T19:21:32.710Z,82.56
2022-11-16T19:24:00.223Z,82.25
2022-11-16T19:26:28.546Z,81.73
2022-11-16T19:28:56.240Z,81.53
2022-11-16T19:31:29.956Z,81.05
2022-11-16T19:34:10.573Z,81.19
2022-11-16T19:36:38.485Z,80.86
2022-11-16T19:39:06.788Z,80.73
2022-11-16T19:41:34.627Z,80.49
2022-11-16T19:44:02.271Z,79.94
2022-11-16T19:46:33.003Z,79.87
2022-11-16T19:49:02.427Z,79.47
2022-11-16T19:51:32.202Z,79.57
2022-11-16T19:54:00.597Z,79.64
2022-11-16T19:56:28.926Z,79.98
2022-11-16T19:58:56.553Z,80.18
2022-11-16T20:01:28.855Z,80.01
2022-11-16T20:04:00.474Z,80.00
2022-11-16T20:06:34.584Z,80.00
2022-11-16T20:09:09.591Z,80.31
2022-11-16T20:11:40.284Z,80.02
2022-11-16T20:14:10.696Z,79.82
2022-11-16T20:16:41.221Z,79.25
2022-11-16T20:19:10.362Z,79.31
2022-11-16T20:21:42.609Z,78.50
2022-11-16T20:24:16.060Z,79.10
2022-11-16T20:26:48.070Z,78.87
2022-11-16T20:29:18.880Z,79.25
2022-11-16T20:31:47.302Z,79.41
2022-11-16T20:37:02.875Z,79.29
2022-11-16T20:39:30.737Z,78.70
2022-11-16T20:41:58.668Z,78.71
2022-11-16T20:44:26.157Z,78.46
2022-11-16T20:46:56.912Z,78.24
2022-11-16T20:49:25.039Z,78.08
2022-11-16T20:51:52.936Z,78.02
2022-11-16T20:54:24.389Z,78.02
2022-11-16T20:56:52.220Z,78.03
2022-11-16T20:59:20.352Z,78.19
2022-11-16T21:01:52.441Z,77.99
2022-11-16T21:04:20.730Z,77.89
2022-11-16T21:06:49.225Z,78.05
2022-11-16T21:09:22.546Z,78.18
2022-11-16T21:12:09.453Z,78.12
2022-11-16T21:14:39.639Z,78.40
2022-11-16T21:17:10.903Z,78.70
2022-11-16T21:19:39.006Z,79.06
2022-11-16T21:22:07.050Z,79.00
2022-11-16T21:24:34.845Z,78.91
2022-11-16T21:27:02.768Z,79.00
2022-11-16T21:29:30.553Z,79.25
2022-11-16T21:31:59.927Z,79.31
2022-11-16T21:34:33.537Z,79.58
2022-11-16T21:37:06.533Z,79.62
2022-11-16T21:39:36.284Z,79.85
2022-11-16T21:42:04.577Z,80.05
2022-11-16T21:44:41.910Z,80.26
2022-11-16T21:47:11.848Z,80.69
2022-11-16T21:50:00.843Z,81.17
2022-11-16T21:52:28.921Z,81.40
2022-11-16T21:54:59.961Z,81.45
2022-11-16T21:57:27.996Z,81.60
2022-11-16T21:59:55.954Z,82.16
2022-11-16T22:02:32.735Z,82.55
2022-11-16T22:05:25.227Z,82.85
2022-11-16T22:07:55.740Z,82.90
2022-11-16T22:10:23.302Z,83.29
2022-11-16T22:12:51.136Z,83.96
2022-11-16T22:15:18.638Z,85.08
2022-11-16T22:17:46.430Z,86.23
2022-11-16T22:20:14.335Z,86.74
2022-11-16T22:22:41.895Z,88.37
2022-11-16T22:25:14.431Z,88.93
2022-11-16T22:30:51.645Z,91.67
2022-11-16T22:33:19.839Z,92.02
2022-11-16T22:35:49.536Z,92.53
2022-11-16T22:38:17.388Z,93.66
2022-11-16T22:40:53.779Z,93.89
2022-11-16T22:43:24.459Z,94.68
2022-11-16T22:45:56.443Z,94.28
2022-11-16T22:48:28.119Z,94.31
2022-11-16T22:51:21.596Z,95.23
2022-11-16T22:53:54.425Z,95.98
2022-11-16T22:56:41.152Z,96.77
2022-11-16T22:59:09.840Z,97.48
2022-11-16T23:01:38.229Z,98.01
2022-11-16T23:04:06.155Z,97.94
2022-11-16T23:06:33.984Z,98.42
2022-11-16T23:09:04.808Z,97.87
2022-11-16T23:11:57.959Z,97.73
2022-11-16T23:14:50.190Z,97.55
2022-11-16T23:17:26.530Z,97.60
2022-11-16T23:20:34.494Z,97.75
2022-11-16T23:24:08.137Z,98.89
2022-11-16T23:27:37.253Z,99.91
2022-11-16T23:30:22.918Z,100.00
2022-11-16T23:33:19.287Z,100.00
2022-11-16T23:36:10.880Z,100.00
2022-11-16T23:39:05.996Z,100.00
2022-11-16T23:41:55.081Z,100.00
2022-11-16T23:44:22.913Z,100.00
2022-11-16T23:46:50.372Z,100.00
2022-11-16T23:49:25.159Z,100.00
2022-11-16T23:51:55.644Z,100.00
2022-11-16T23:54:23.640Z,100.00
2022-11-16T23:56:51.237Z,100.00
2022-11-16T23:59:19.103Z,100.00
